Stonington, CT

6:41 PM EST on January 26, 2015 (GMT -0500)
Masons Island Marina | Change Station
CLOSE
Current Station
Personal Weather Station
Location: Stonington, CT
Elevation: 30 ft
Nearby Weather Stations

Elev 30 ft 41.34 °N, 71.96 °W | Updated 7 seconds ago

Snow
Snow
28.4 °F
Feels Like 18 °F
N
12.1
Wind Variable Wind from NNW
Gusts 15.0 mph

Today
High -- | Low -- °F
--% Chance of Precip.
Yesterday
High -- | Low -- °F
Precip. -- in
7:04 AM 4:56 PM
Waxing Crescent, 48% visible
Pressure 29.89 in
Visibility 1.5 miles
Clouds Scattered Clouds 1200 ft
Overcast 1900 ft
Windchill 18 °F
Dew Point 26 °F
Humidity 91%
Rainfall 0.00 in
Snow Depth Not available.
UV 0 out of 12
Pollen .10 out of 12
Air Quality Not available.
Flu Activity Not available.
SPECI KWST 262335Z AUTO 03010G21KT 1 1/2SM -SN BR SCT012 OVC019 M02/M04 A2989 RMK AO2 P0001 T10171039

More Conditions Fewer Conditions

Pressure 29.89 in
Visibility 1.5 miles
Clouds Scattered Clouds 1200 ft
Overcast 1900 ft
Windchill 18 °F
Dew Point 26 °F
Humidity 91%
Rainfall 0.00 in
Snow Depth Not available.
UV 0 out of 12
Pollen .10 out of 12
Air Quality Not available.
Flu Activity Not available.
SPECI KWST 262335Z AUTO 03010G21KT 1 1/2SM -SN BR SCT012 OVC019 M02/M04 A2989 RMK AO2 P0001 T10171039

More Conditions Fewer Conditions

10-Day Weather Forecast

Almanac

Astronomy

Jan. 26, 2015 Rise Set
Actual Time
Civil Twilight
Nautical Twilight
Astronomical Twilight
Moon
Length of Visible Light
Length of Day
Tomorrow will be .
, % of the Moon is Illuminated

Today's Extremes

State Highs State Lows

Community

WunderPhotos

Upload Photos

1,790,408 photos uploaded!

WunderBlogs® & News

Nearby

Air Quality

  Air Quality AQ Index Pollutant
Not available.

Snow Depth

Station Depth Elevation

Earthquake Activity

City Distance Mag. Time & Date
Minimum magnitude displayed is 2.5.

Coastal Water Temperatures

Place Temperature

Nearby Weather Stations